createdAt,value
2023-03-30T00:00:35.224Z,11.88
2023-03-30T00:05:38.160Z,11.92
2023-03-30T00:10:41.044Z,11.97
2023-03-30T00:15:42.642Z,11.83
2023-03-30T00:20:45.222Z,11.54
2023-03-30T00:25:47.206Z,11.32
2023-03-30T00:30:49.789Z,11.23
2023-03-30T00:35:53.354Z,11.12
2023-03-30T00:40:58.169Z,11.04
2023-03-30T00:46:00.097Z,11.06
2023-03-30T00:51:09.860Z,11.07
2023-03-30T00:56:15.055Z,11.16
2023-03-30T01:01:25.896Z,11.25
2023-03-30T01:06:30.224Z,11.28
2023-03-30T01:11:34.276Z,11.13
2023-03-30T01:16:43.167Z,11.11
2023-03-30T01:22:17.936Z,11.07
2023-03-30T01:27:40.281Z,10.98
2023-03-30T01:33:13.386Z,10.98
2023-03-30T01:38:39.215Z,10.98
2023-03-30T01:43:52.778Z,10.98
2023-03-30T01:49:07.553Z,11.09
2023-03-30T01:54:39.844Z,11.09
2023-03-30T02:00:00.189Z,11.24
2023-03-30T02:05:06.298Z,11.18
2023-03-30T02:10:10.744Z,11.12
2023-03-30T02:15:16.915Z,11.06
2023-03-30T02:20:18.952Z,11.10
2023-03-30T02:25:21.123Z,11.08
2023-03-30T02:30:22.855Z,11.17
2023-03-30T02:35:55.053Z,11.17
2023-03-30T02:41:07.179Z,11.28
2023-03-30T02:46:40.119Z,11.19
2023-03-30T02:52:05.197Z,11.20
2023-03-30T02:57:18.198Z,11.12
2023-03-30T03:02:28.456Z,11.12
2023-03-30T03:07:40.790Z,11.11
2023-03-30T03:12:45.203Z,11.08
2023-03-30T03:17:48.052Z,11.03
2023-03-30T03:22:56.465Z,11.01
2023-03-30T03:27:58.452Z,10.97
2023-03-30T03:33:02.091Z,10.94
2023-03-30T03:38:07.769Z,11.06
2023-03-30T03:43:10.162Z,11.09
2023-03-30T03:48:12.551Z,11.10
2023-03-30T03:53:18.620Z,11.09
2023-03-30T03:58:20.867Z,11.07
2023-03-30T04:03:22.644Z,10.96
2023-03-30T04:08:25.833Z,10.91
2023-03-30T04:13:28.453Z,10.87
2023-03-30T04:18:48.502Z,10.74
2023-03-30T04:24:12.207Z,10.63
2023-03-30T04:29:32.778Z,10.52
2023-03-30T04:34:54.872Z,10.44
2023-03-30T04:40:00.092Z,10.47
2023-03-30T04:45:06.618Z,10.42
2023-03-30T04:50:26.245Z,10.38
2023-03-30T04:55:59.929Z,10.34
2023-03-30T05:01:22.586Z,10.22
2023-03-30T05:06:39.264Z,10.20
2023-03-30T05:11:57.044Z,10.11
2023-03-30T05:17:11.759Z,10.04
2023-03-30T05:22:50.853Z,10.07
2023-03-30T05:28:12.321Z,10.01
2023-03-30T05:33:23.052Z,9.94
2023-03-30T05:38:44.849Z,9.95
2023-03-30T05:44:09.414Z,9.94
2023-03-30T05:49:46.212Z,9.77
2023-03-30T05:55:02.067Z,9.66
2023-03-30T06:00:33.439Z,9.72
2023-03-30T06:05:43.825Z,9.73
2023-03-30T06:10:56.148Z,9.71
2023-03-30T06:16:02.434Z,9.77
2023-03-30T06:21:09.176Z,9.68
2023-03-30T06:26:25.951Z,9.65
2023-03-30T06:31:28.977Z,9.65
2023-03-30T06:36:50.646Z,9.70
2023-03-30T06:41:53.212Z,9.74
2023-03-30T06:47:08.937Z,9.82
2023-03-30T06:52:11.527Z,9.84
2023-03-30T06:57:15.644Z,9.76
2023-03-30T07:02:17.745Z,9.67
2023-03-30T07:07:46.463Z,9.73
2023-03-30T07:12:48.608Z,9.82
2023-03-30T07:17:50.853Z,9.94
2023-03-30T07:22:52.704Z,10.00
2023-03-30T07:27:54.562Z,10.07
2023-03-30T07:32:58.376Z,10.10
2023-03-30T07:38:03.680Z,10.25
2023-03-30T07:43:09.932Z,10.20
2023-03-30T07:48:12.324Z,10.28
2023-03-30T07:53:14.066Z,10.31
2023-03-30T07:58:17.203Z,10.42
2023-03-30T08:03:19.721Z,10.58
2023-03-30T08:08:21.769Z,10.74
2023-03-30T08:13:23.962Z,10.78
2023-03-30T08:18:28.991Z,10.88
2023-03-30T08:23:30.792Z,10.91
2023-03-30T08:28:32.522Z,11.17
2023-03-30T08:33:35.094Z,11.09
2023-03-30T08:38:36.838Z,11.23
2023-03-30T08:44:00.524Z,11.40
2023-03-30T08:49:08.845Z,11.49
2023-03-30T08:54:16.723Z,11.56
2023-03-30T08:59:29.659Z,11.59
2023-03-30T09:04:40.601Z,11.65
2023-03-30T09:09:47.913Z,11.75
2023-03-30T09:15:03.219Z,11.80
2023-03-30T09:20:15.295Z,11.75
2023-03-30T09:25:28.218Z,12.02
2023-03-30T09:30:41.665Z,12.02
2023-03-30T09:35:59.267Z,12.09
2023-03-30T09:41:17.730Z,12.18
2023-03-30T09:46:19.852Z,12.22
2023-03-30T09:51:31.191Z,12.24
2023-03-30T09:56:45.147Z,12.37
2023-03-30T10:01:47.103Z,12.53
2023-03-30T10:06:50.806Z,12.29
2023-03-30T10:11:55.149Z,12.45
2023-03-30T10:16:58.077Z,12.65
2023-03-30T10:22:04.186Z,12.82
2023-03-30T10:27:13.216Z,12.90
2023-03-30T10:32:19.045Z,12.81
2023-03-30T10:37:32.605Z,12.86
2023-03-30T10:42:34.379Z,12.96
2023-03-30T10:48:00.380Z,13.19
2023-03-30T10:53:19.954Z,13.24
2023-03-30T10:58:27.505Z,13.14
2023-03-30T11:03:32.674Z,13.29
2023-03-30T11:08:41.615Z,13.43
2023-03-30T11:13:49.797Z,13.11
2023-03-30T11:18:57.219Z,13.02
2023-03-30T11:24:07.023Z,12.59
2023-03-30T11:29:19.693Z,12.43
2023-03-30T11:34:35.731Z,12.25
2023-03-30T11:39:41.414Z,12.43
2023-03-30T11:44:43.599Z,12.49
2023-03-30T11:50:04.264Z,12.67
2023-03-30T11:55:26.558Z,12.95
2023-03-30T12:00:40.638Z,12.50
2023-03-30T12:05:56.281Z,12.70
2023-03-30T12:11:18.527Z,12.96
2023-03-30T12:16:34.261Z,13.25
2023-03-30T12:22:15.425Z,12.75
2023-03-30T12:27:17.156Z,12.53
2023-03-30T12:32:22.697Z,12.82
2023-03-30T12:37:35.083Z,12.86
2023-03-30T12:42:47.023Z,12.74
2023-03-30T12:47:53.839Z,12.50
2023-03-30T12:53:52.361Z,12.26
2023-03-30T12:59:18.858Z,12.23
2023-03-30T13:04:25.269Z,12.24
2023-03-30T13:09:27.330Z,12.09
2023-03-30T13:14:35.278Z,11.98
2023-03-30T13:19:41.025Z,12.31
2023-03-30T13:24:42.933Z,12.53
2023-03-30T13:29:53.865Z,12.38
2023-03-30T13:35:28.438Z,11.93
2023-03-30T13:40:46.396Z,12.24
2023-03-30T13:46:13.746Z,12.45
2023-03-30T13:51:23.092Z,12.73
2023-03-30T13:56:27.441Z,12.49
2023-03-30T14:01:29.176Z,12.19
2023-03-30T14:06:34.381Z,12.29
2023-03-30T14:11:40.072Z,12.18
2023-03-30T14:16:41.937Z,12.16
2023-03-30T14:21:46.381Z,11.85
2023-03-30T14:26:49.086Z,11.79
2023-03-30T14:32:04.419Z,11.86
2023-03-30T14:37:11.971Z,12.00
2023-03-30T14:42:36.498Z,12.13
2023-03-30T14:47:38.253Z,11.86
2023-03-30T14:52:43.163Z,11.61
2023-03-30T14:57:45.381Z,11.38
2023-03-30T15:02:51.415Z,11.40
2023-03-30T15:07:53.449Z,11.42
2023-03-30T15:12:57.593Z,11.36
2023-03-30T15:18:00.925Z,11.75
2023-03-30T15:23:02.703Z,11.83
2023-03-30T15:28:09.429Z,11.74
2023-03-30T15:33:39.926Z,11.41
2023-03-30T15:38:52.561Z,11.72
2023-03-30T15:44:09.863Z,11.64
2023-03-30T15:49:16.131Z,11.65
2023-03-30T15:54:38.789Z,11.53
2023-03-30T15:59:45.329Z,11.76
2023-03-30T16:04:49.414Z,11.72
2023-03-30T16:09:52.079Z,11.53
2023-03-30T16:14:54.347Z,11.34
2023-03-30T16:19:55.944Z,11.36
2023-03-30T16:24:57.603Z,11.37
2023-03-30T16:29:59.289Z,11.34
2023-03-30T16:35:01.007Z,11.32
2023-03-30T16:40:10.359Z,11.24
2023-03-30T16:45:12.088Z,11.03
2023-03-30T16:50:24.116Z,10.96
2023-03-30T16:55:25.915Z,10.97
2023-03-30T17:00:33.264Z,10.81
2023-03-30T17:05:35.449Z,10.63
2023-03-30T17:10:40.565Z,10.59
2023-03-30T17:15:42.725Z,10.61
2023-03-30T17:20:48.732Z,10.64
2023-03-30T17:25:51.066Z,10.63
2023-03-30T17:30:55.639Z,10.64
2023-03-30T17:36:00.510Z,10.46
2023-03-30T17:41:02.562Z,10.40
2023-03-30T17:46:04.938Z,10.32
2023-03-30T17:51:07.359Z,10.45
2023-03-30T17:56:13.254Z,10.30
2023-03-30T18:01:16.781Z,10.30
2023-03-30T18:06:18.687Z,10.22
2023-03-30T18:11:21.072Z,10.06
2023-03-30T18:16:24.376Z,10.09
2023-03-30T18:21:26.050Z,10.05
2023-03-30T18:26:27.822Z,9.99
2023-03-30T18:31:29.695Z,9.99
2023-03-30T18:36:31.373Z,9.86
2023-03-30T18:41:33.047Z,9.85
2023-03-30T18:46:34.856Z,9.87
2023-03-30T18:51:36.519Z,9.76
2023-03-30T18:56:38.171Z,9.74
2023-03-30T19:01:40.257Z,9.82
2023-03-30T19:06:44.427Z,9.69
2023-03-30T19:11:46.009Z,9.71
2023-03-30T19:16:47.844Z,9.70
2023-03-30T19:21:50.745Z,9.65
2023-03-30T19:26:52.451Z,9.73
2023-03-30T19:31:55.102Z,9.77
2023-03-30T19:36:56.724Z,9.79
2023-03-30T19:41:58.448Z,9.78
2023-03-30T19:47:00.118Z,9.81
2023-03-30T19:52:02.005Z,9.74
2023-03-30T19:57:03.938Z,9.83
2023-03-30T20:02:05.993Z,9.72
2023-03-30T20:07:07.783Z,9.71
2023-03-30T20:12:10.167Z,9.74
2023-03-30T20:17:11.803Z,9.77
2023-03-30T20:22:13.522Z,9.73
2023-03-30T20:27:15.312Z,9.67
2023-03-30T20:32:17.449Z,9.69
2023-03-30T20:37:19.366Z,9.69
2023-03-30T20:42:26.258Z,9.73
2023-03-30T20:47:30.177Z,9.73
2023-03-30T20:52:32.435Z,9.71
2023-03-30T20:57:34.000Z,9.74
2023-03-30T21:02:35.885Z,9.67
2023-03-30T21:07:38.571Z,9.71
2023-03-30T21:12:40.250Z,9.71
2023-03-30T21:17:41.908Z,9.72
2023-03-30T21:22:43.627Z,9.71
2023-03-30T21:27:45.332Z,9.72
2023-03-30T21:32:46.980Z,9.83
2023-03-30T21:37:48.744Z,9.74
2023-03-30T21:42:50.453Z,9.76
2023-03-30T21:47:52.041Z,9.81
2023-03-30T21:52:58.164Z,9.85
2023-03-30T21:57:59.765Z,9.92
2023-03-30T22:03:01.542Z,9.96
2023-03-30T22:08:03.293Z,9.97
2023-03-30T22:13:05.689Z,10.04
2023-03-30T22:18:07.380Z,9.99
2023-03-30T22:23:09.009Z,9.99
2023-03-30T22:28:12.016Z,10.02
2023-03-30T22:33:13.705Z,10.06
2023-03-30T22:38:16.591Z,10.03
2023-03-30T22:43:18.348Z,10.11
2023-03-30T22:48:19.945Z,10.16
2023-03-30T22:53:21.546Z,10.21
2023-03-30T22:58:23.500Z,10.18
2023-03-30T23:03:25.234Z,10.15
2023-03-30T23:08:28.147Z,10.14
2023-03-30T23:13:30.986Z,10.15
2023-03-30T23:18:33.393Z,10.13
2023-03-30T23:23:36.371Z,10.09
2023-03-30T23:28:41.936Z,10.07
2023-03-30T23:33:43.883Z,10.07
2023-03-30T23:38:46.556Z,10.05
2023-03-30T23:43:48.896Z,10.02
2023-03-30T23:48:51.357Z,9.98
2023-03-30T23:53:54.723Z,10.02
2023-03-30T23:58:56.870Z,10.04
